sensor_id;sensor_type;location;lat;lon;timestamp;pressure;altitude;pressure_sealevel;temperature;humidity
8637;BME280;4356;49.068;8.658;2023-04-28T00:01:42;99684.88;;;20.88;36.50
8637;BME280;4356;49.068;8.658;2023-04-28T00:04:09;99685.97;;;20.87;36.46
8637;BME280;4356;49.068;8.658;2023-04-28T00:06:34;99681.56;;;20.86;36.33
8637;BME280;4356;49.068;8.658;2023-04-28T00:09:00;99679.06;;;20.84;36.33
8637;BME280;4356;49.068;8.658;2023-04-28T00:11:25;99681.31;;;20.87;36.41
8637;BME280;4356;49.068;8.658;2023-04-28T00:13:51;99676.09;;;20.86;36.27
8637;BME280;4356;49.068;8.658;2023-04-28T00:16:17;99680.97;;;20.84;36.33
8637;BME280;4356;49.068;8.658;2023-04-28T00:18:42;99679.31;;;20.83;36.36
8637;BME280;4356;49.068;8.658;2023-04-28T00:21:08;99683.69;;;20.84;36.39
8637;BME280;4356;49.068;8.658;2023-04-28T00:23:34;99677.66;;;20.82;36.50
8637;BME280;4356;49.068;8.658;2023-04-28T00:25:59;99679.31;;;20.83;36.49
8637;BME280;4356;49.068;8.658;2023-04-28T00:28:25;99678.72;;;20.81;36.12
8637;BME280;4356;49.068;8.658;2023-04-28T00:30:51;99665.56;;;20.78;36.41
8637;BME280;4356;49.068;8.658;2023-04-28T00:33:16;99655.34;;;20.73;36.32
8637;BME280;4356;49.068;8.658;2023-04-28T00:35:42;99654.91;;;20.76;36.54
8637;BME280;4356;49.068;8.658;2023-04-28T00:38:08;99657.38;;;20.78;36.43
8637;BME280;4356;49.068;8.658;2023-04-28T00:40:38;99658.19;;;20.78;36.48
8637;BME280;4356;49.068;8.658;2023-04-28T00:43:04;99652.38;;;20.75;36.46
8637;BME280;4356;49.068;8.658;2023-04-28T00:45:31;99651.56;;;20.74;36.42
8637;BME280;4356;49.068;8.658;2023-04-28T00:47:58;99649.91;;;20.73;36.39
8637;BME280;4356;49.068;8.658;2023-04-28T00:50:24;99655.09;;;20.75;36.71
8637;BME280;4356;49.068;8.658;2023-04-28T00:52:51;99644.94;;;20.70;36.45
8637;BME280;4356;49.068;8.658;2023-04-28T00:55:17;99651.44;;;20.69;36.69
8637;BME280;4356;49.068;8.658;2023-04-28T00:57:44;99659.44;;;20.71;36.55
8637;BME280;4356;49.068;8.658;2023-04-28T01:00:10;99664.88;;;20.71;36.49
8637;BME280;4356;49.068;8.658;2023-04-28T01:02:36;99657.16;;;20.68;36.56
8637;BME280;4356;49.068;8.658;2023-04-28T01:05:02;99645.78;;;20.71;36.52
8637;BME280;4356;49.068;8.658;2023-04-28T01:07:28;99648.50;;;20.71;36.63
8637;BME280;4356;49.068;8.658;2023-04-28T01:09:54;99635.31;;;20.68;36.69
8637;BME280;4356;49.068;8.658;2023-04-28T01:12:20;99623.22;;;20.64;36.69
8637;BME280;4356;49.068;8.658;2023-04-28T01:14:46;99611.94;;;20.60;36.37
8637;BME280;4356;49.068;8.658;2023-04-28T01:17:12;99615.84;;;20.64;36.53
8637;BME280;4356;49.068;8.658;2023-04-28T01:19:38;99609.81;;;20.62;36.68
8637;BME280;4356;49.068;8.658;2023-04-28T01:22:03;99605.69;;;20.60;36.76
8637;BME280;4356;49.068;8.658;2023-04-28T01:24:29;99616.09;;;20.63;36.69
8637;BME280;4356;49.068;8.658;2023-04-28T01:26:55;99616.34;;;20.61;36.68
8637;BME280;4356;49.068;8.658;2023-04-28T01:29:21;99606.97;;;20.57;36.72
8637;BME280;4356;49.068;8.658;2023-04-28T01:31:46;99594.41;;;20.56;36.78
8637;BME280;4356;49.068;8.658;2023-04-28T01:34:12;99591.44;;;20.58;36.75
8637;BME280;4356;49.068;8.658;2023-04-28T01:36:38;99600.69;;;20.57;36.51
8637;BME280;4356;49.068;8.658;2023-04-28T01:39:04;99600.69;;;20.57;36.90
8637;BME280;4356;49.068;8.658;2023-04-28T01:41:29;99595.47;;;20.55;36.53
8637;BME280;4356;49.068;8.658;2023-04-28T01:43:55;99598.44;;;20.54;36.84
8637;BME280;4356;49.068;8.658;2023-04-28T01:46:21;99606.38;;;20.55;36.99
8637;BME280;4356;49.068;8.658;2023-04-28T01:48:46;99607.47;;;20.54;36.69
8637;BME280;4356;49.068;8.658;2023-04-28T01:51:12;99602.81;;;20.55;36.79
8637;BME280;4356;49.068;8.658;2023-04-28T01:53:37;99605.78;;;20.53;36.77
8637;BME280;4356;49.068;8.658;2023-04-28T01:56:03;99606.53;;;20.48;36.87
8637;BME280;4356;49.068;8.658;2023-04-28T01:58:29;99613.41;;;20.51;36.84
8637;BME280;4356;49.068;8.658;2023-04-28T02:00:54;99611.50;;;20.52;36.75
8637;BME280;4356;49.068;8.658;2023-04-28T02:03:20;99609.03;;;20.50;36.68
8637;BME280;4356;49.068;8.658;2023-04-28T02:05:46;99608.69;;;20.46;36.76
8637;BME280;4356;49.068;8.658;2023-04-28T02:08:11;99602.38;;;20.46;36.85
8637;BME280;4356;49.068;8.658;2023-04-28T02:10:37;99621.84;;;20.49;36.93
8637;BME280;4356;49.068;8.658;2023-04-28T02:13:03;99605.94;;;20.46;36.95
8637;BME280;4356;49.068;8.658;2023-04-28T02:15:28;99606.53;;;20.48;36.96
8637;BME280;4356;49.068;8.658;2023-04-28T02:17:55;99608.44;;;20.48;37.10
8637;BME280;4356;49.068;8.658;2023-04-28T02:20:20;99622.31;;;20.46;36.88
8637;BME280;4356;49.068;8.658;2023-04-28T02:22:46;99606.44;;;20.43;36.88
8637;BME280;4356;49.068;8.658;2023-04-28T02:25:12;99623.63;;;20.44;37.03
8637;BME280;4356;49.068;8.658;2023-04-28T02:27:38;99611.31;;;20.41;37.18
8637;BME280;4356;49.068;8.658;2023-04-28T02:30:04;99611.06;;;20.43;37.06
8637;BME280;4356;49.068;8.658;2023-04-28T02:32:31;99590.28;;;20.42;37.00
8637;BME280;4356;49.068;8.658;2023-04-28T02:34:57;99612.72;;;20.44;37.00
8637;BME280;4356;49.068;8.658;2023-04-28T02:37:23;99606.44;;;20.43;37.09
8637;BME280;4356;49.068;8.658;2023-04-28T02:39:48;99586.16;;;20.39;37.00
8637;BME280;4356;49.068;8.658;2023-04-28T02:42:14;99597.66;;;20.41;37.03
8637;BME280;4356;49.068;8.658;2023-04-28T02:44:40;99594.09;;;20.41;37.24
8637;BME280;4356;49.068;8.658;2023-04-28T02:47:05;99596.22;;;20.39;37.15
8637;BME280;4356;49.068;8.658;2023-04-28T02:49:31;99600.25;;;20.36;37.23
8637;BME280;4356;49.068;8.658;2023-04-28T02:51:56;99588.53;;;20.36;37.14
8637;BME280;4356;49.068;8.658;2023-04-28T02:54:22;99602.44;;;20.34;37.11
8637;BME280;4356;49.068;8.658;2023-04-28T02:56:54;99594.81;;;20.36;37.10
8637;BME280;4356;49.068;8.658;2023-04-28T02:59:21;99597.44;;;20.31;37.23
8637;BME280;4356;49.068;8.658;2023-04-28T03:01:46;99592.22;;;20.30;37.04
8637;BME280;4356;49.068;8.658;2023-04-28T03:04:13;99589.25;;;20.31;36.97
8637;BME280;4356;49.068;8.658;2023-04-28T03:06:39;99596.13;;;20.34;37.20
8637;BME280;4356;49.068;8.658;2023-04-28T03:09:05;99585.56;;;20.26;37.23
8637;BME280;4356;49.068;8.658;2023-04-28T03:11:31;99595.78;;;20.30;37.27
8637;BME280;4356;49.068;8.658;2023-04-28T03:13:57;99596.59;;;20.31;37.01
8637;BME280;4356;49.068;8.658;2023-04-28T03:16:22;99575.50;;;20.26;37.17
8637;BME280;4356;49.068;8.658;2023-04-28T03:18:48;99569.56;;;20.29;37.01
8637;BME280;4356;49.068;8.658;2023-04-28T03:21:14;99573.13;;;20.30;37.06
8637;BME280;4356;49.068;8.658;2023-04-28T03:23:39;99559.13;;;20.26;37.15
8637;BME280;4356;49.068;8.658;2023-04-28T03:26:05;99558.28;;;20.26;37.33
8637;BME280;4356;49.068;8.658;2023-04-28T03:28:31;99568.41;;;20.25;37.19
8637;BME280;4356;49.068;8.658;2023-04-28T03:30:57;99563.66;;;20.21;37.12
8637;BME280;4356;49.068;8.658;2023-04-28T03:33:22;99565.88;;;20.24;37.24
8637;BME280;4356;49.068;8.658;2023-04-28T03:35:48;99562.34;;;20.23;37.24
8637;BME280;4356;49.068;8.658;2023-04-28T03:38:13;99568.41;;;20.25;37.30
8637;BME280;4356;49.068;8.658;2023-04-28T03:40:39;99567.81;;;20.23;36.90
8637;BME280;4356;49.068;8.658;2023-04-28T03:43:05;99569.09;;;20.21;37.21
8637;BME280;4356;49.068;8.658;2023-04-28T03:45:31;99568.88;;;20.22;37.32
8637;BME280;4356;49.068;8.658;2023-04-28T03:47:57;99546.22;;;20.10;37.27
8637;BME280;4356;49.068;8.658;2023-04-28T03:50:22;99559.28;;;20.20;37.22
8637;BME280;4356;49.068;8.658;2023-04-28T03:52:48;99558.44;;;20.19;37.14
8637;BME280;4356;49.068;8.658;2023-04-28T03:55:13;99551.31;;;20.18;37.26
8637;BME280;4356;49.068;8.658;2023-04-28T03:57:39;99552.97;;;20.19;37.26
8637;BME280;4356;49.068;8.658;2023-04-28T04:00:05;99557.34;;;20.20;37.28
8637;BME280;4356;49.068;8.658;2023-04-28T04:02:32;99554.88;;;20.19;37.50
8637;BME280;4356;49.068;8.658;2023-04-28T04:04:57;99557.00;;;20.17;37.33
8637;BME280;4356;49.068;8.658;2023-04-28T04:07:23;99556.19;;;20.16;37.46
8637;BME280;4356;49.068;8.658;2023-04-28T04:09:49;99555.59;;;20.14;37.32
8637;BME280;4356;49.068;8.658;2023-04-28T04:12:14;99551.78;;;20.15;37.29
8637;BME280;4356;49.068;8.658;2023-04-28T04:14:40;99559.13;;;20.15;37.33
8637;BME280;4356;49.068;8.658;2023-04-28T04:17:05;99554.75;;;20.14;37.45
8637;BME280;4356;49.068;8.658;2023-04-28T04:19:32;99559.13;;;20.15;37.34
8637;BME280;4356;49.068;8.658;2023-04-28T04:21:57;99553.31;;;20.11;37.36
8637;BME280;4356;49.068;8.658;2023-04-28T04:24:23;99550.13;;;20.14;37.48
8637;BME280;4356;49.068;8.658;2023-04-28T04:26:48;99533.63;;;20.09;37.51
8637;BME280;4356;49.068;8.658;2023-04-28T04:29:14;99539.91;;;20.10;37.42
8637;BME280;4356;49.068;8.658;2023-04-28T04:31:40;99536.94;;;20.11;37.26
8637;BME280;4356;49.068;8.658;2023-04-28T04:34:06;99527.81;;;20.06;37.48
8637;BME280;4356;49.068;8.658;2023-04-28T04:36:31;99533.16;;;20.12;37.67
8637;BME280;4356;49.068;8.658;2023-04-28T04:38:57;99520.00;;;20.09;37.66
8637;BME280;4356;49.068;8.658;2023-04-28T04:41:25;99520.00;;;20.09;37.71
8637;BME280;4356;49.068;8.658;2023-04-28T04:43:51;99521.06;;;20.08;37.58
8637;BME280;4356;49.068;8.658;2023-04-28T04:46:16;99522.16;;;20.07;37.51
8637;BME280;4356;49.068;8.658;2023-04-28T04:48:42;99515.53;;;20.03;37.62
8637;BME280;4356;49.068;8.658;2023-04-28T04:51:08;99518.00;;;20.05;37.59
8637;BME280;4356;49.068;8.658;2023-04-28T04:53:33;99516.09;;;20.05;37.71
8637;BME280;4356;49.068;8.658;2023-04-28T04:55:59;99526.19;;;20.05;37.57
8637;BME280;4356;49.068;8.658;2023-04-28T04:58:26;99516.09;;;20.05;37.55
8637;BME280;4356;49.068;8.658;2023-04-28T05:00:51;99514.09;;;20.01;37.68
8637;BME280;4356;49.068;8.658;2023-04-28T05:03:17;99523.69;;;20.03;37.82
8637;BME280;4356;49.068;8.658;2023-04-28T05:05:42;99520.72;;;20.05;37.68
8637;BME280;4356;49.068;8.658;2023-04-28T05:08:12;99520.97;;;20.03;37.57
8637;BME280;4356;49.068;8.658;2023-04-28T05:10:37;99520.72;;;20.05;37.66
8637;BME280;4356;49.068;8.658;2023-04-28T05:13:06;99520.22;;;20.08;37.70
8637;BME280;4356;49.068;8.658;2023-04-28T05:15:31;99520.47;;;20.06;37.69
8637;BME280;4356;49.068;8.658;2023-04-28T05:17:57;99529.50;;;20.07;37.96
8637;BME280;4356;49.068;8.658;2023-04-28T05:20:23;99528.66;;;20.06;37.76
8637;BME280;4356;49.068;8.658;2023-04-28T05:22:49;99524.50;;;20.04;37.76
8637;BME280;4356;49.068;8.658;2023-04-28T05:25:15;99518.25;;;20.03;37.63
8637;BME280;4356;49.068;8.658;2023-04-28T05:27:40;99523.81;;;20.08;37.82
8637;BME280;4356;49.068;8.658;2023-04-28T05:30:07;99526.53;;;20.08;37.86
8637;BME280;4356;49.068;8.658;2023-04-28T05:32:34;99533.16;;;20.12;37.67
8637;BME280;4356;49.068;8.658;2023-04-28T05:35:00;99526.53;;;20.08;37.82
8637;BME280;4356;49.068;8.658;2023-04-28T05:37:26;99526.03;;;20.11;37.75
8637;BME280;4356;49.068;8.658;2023-04-28T05:39:51;99520.34;;;20.13;37.89
8637;BME280;4356;49.068;8.658;2023-04-28T05:42:17;99523.06;;;20.13;37.69
8637;BME280;4356;49.068;8.658;2023-04-28T05:44:43;99510.16;;;20.08;37.77
8637;BME280;4356;49.068;8.658;2023-04-28T05:47:10;99507.78;;;20.12;37.61
8637;BME280;4356;49.068;8.658;2023-04-28T05:49:36;99509.19;;;20.14;37.70
8637;BME280;4356;49.068;8.658;2023-04-28T05:52:02;99514.19;;;20.17;37.65
8637;BME280;4356;49.068;8.658;2023-04-28T05:54:28;99507.06;;;20.16;37.72
8637;BME280;4356;49.068;8.658;2023-04-28T05:56:54;99516.69;;;20.19;37.72
8637;BME280;4356;49.068;8.658;2023-04-28T05:59:20;99515.03;;;20.18;37.80
8637;BME280;4356;49.068;8.658;2023-04-28T06:01:45;99517.50;;;20.19;37.63
8637;BME280;4356;49.068;8.658;2023-04-28T06:04:11;99518.09;;;20.21;37.78
8637;BME280;4356;49.068;8.658;2023-04-28T06:06:36;99513.13;;;20.18;37.60
8637;BME280;4356;49.068;8.658;2023-04-28T06:09:02;99517.50;;;20.19;37.77
8637;BME280;4356;49.068;8.658;2023-04-28T06:11:30;99512.66;;;20.21;37.80
8637;BME280;4356;49.068;8.658;2023-04-28T06:13:58;99514.88;;;20.24;37.74
8637;BME280;4356;49.068;8.658;2023-04-28T06:16:24;99514.88;;;20.24;37.85
8637;BME280;4356;49.068;8.658;2023-04-28T06:18:49;99511.09;;;20.25;37.73
8637;BME280;4356;49.068;8.658;2023-04-28T06:21:16;99511.91;;;20.26;37.83
8637;BME280;4356;49.068;8.658;2023-04-28T06:23:43;99504.81;;;20.25;37.86
8637;BME280;4356;49.068;8.658;2023-04-28T06:26:08;99509.78;;;20.28;37.55
8637;BME280;4356;49.068;8.658;2023-04-28T06:28:34;99497.22;;;20.27;37.69
8637;BME280;4356;49.068;8.658;2023-04-28T06:31:00;99507.38;;;20.31;37.90
8637;BME280;4356;49.068;8.658;2023-04-28T06:33:26;99501.59;;;20.28;37.81
8637;BME280;4356;49.068;8.658;2023-04-28T06:35:52;99512.59;;;20.33;37.69
8637;BME280;4356;49.068;8.658;2023-04-28T06:38:18;99511.19;;;20.30;37.94
8637;BME280;4356;49.068;8.658;2023-04-28T06:40:44;99504.66;;;20.31;38.01
8637;BME280;4356;49.068;8.658;2023-04-28T06:43:10;99511.19;;;20.30;37.96
8637;BME280;4356;49.068;8.658;2023-04-28T06:45:37;99520.78;;;20.33;37.95
8637;BME280;4356;49.068;8.658;2023-04-28T06:48:04;99523.03;;;20.36;37.91
8637;BME280;4356;49.068;8.658;2023-04-28T06:50:30;99523.50;;;20.33;37.85
8637;BME280;4356;49.068;8.658;2023-04-28T06:52:55;99521.38;;;20.35;38.01
8637;BME280;4356;49.068;8.658;2023-04-28T06:55:23;99514.84;;;20.36;38.14
8637;BME280;4356;49.068;8.658;2023-04-28T06:57:49;99517.34;;;20.37;38.09
8637;BME280;4356;49.068;8.658;2023-04-28T07:00:15;99518.38;;;20.36;37.96
8637;BME280;4356;49.068;8.658;2023-04-28T07:02:41;99529.91;;;20.38;38.04
8637;BME280;4356;49.068;8.658;2023-04-28T07:05:07;99533.13;;;20.35;38.10
8637;BME280;4356;49.068;8.658;2023-04-28T07:07:33;99530.97;;;20.37;38.07
8637;BME280;4356;49.068;8.658;2023-04-28T07:09:59;99529.91;;;20.38;37.96
8637;BME280;4356;49.068;8.658;2023-04-28T07:12:26;99536.44;;;20.37;38.13
8637;BME280;4356;49.068;8.658;2023-04-28T07:14:52;99538.09;;;20.38;37.96
8637;BME280;4356;49.068;8.658;2023-04-28T07:17:18;99556.13;;;20.39;38.09
8637;BME280;4356;49.068;8.658;2023-04-28T07:19:43;99576.41;;;20.43;37.83
8637;BME280;4356;49.068;8.658;2023-04-28T07:22:09;99557.19;;;20.38;37.97
8637;BME280;4356;49.068;8.658;2023-04-28T07:24:35;99542.94;;;20.36;38.00
8637;BME280;4356;49.068;8.658;2023-04-28T07:27:00;99542.56;;;20.44;37.82
8637;BME280;4356;49.068;8.658;2023-04-28T07:29:28;99539.75;;;20.39;38.00
8637;BME280;4356;49.068;8.658;2023-04-28T07:32:03;99558.97;;;20.44;38.07
8637;BME280;4356;49.068;8.658;2023-04-28T07:34:36;99564.41;;;20.44;38.20
8637;BME280;4356;49.068;8.658;2023-04-28T07:37:04;99554.34;;;20.45;38.01
8637;BME280;4356;49.068;8.658;2023-04-28T07:39:32;99556.47;;;20.43;38.04
8637;BME280;4356;49.068;8.658;2023-04-28T07:42:03;99555.72;;;20.47;37.90
8637;BME280;4356;49.068;8.658;2023-04-28T07:44:29;99550.28;;;20.47;38.11
8637;BME280;4356;49.068;8.658;2023-04-28T07:46:58;99539.59;;;20.46;38.10
8637;BME280;4356;49.068;8.658;2023-04-28T07:49:26;99543.16;;;20.46;38.01
8637;BME280;4356;49.068;8.658;2023-04-28T07:51:51;99539.59;;;20.46;37.98
8637;BME280;4356;49.068;8.658;2023-04-28T07:54:19;99540.44;;;20.46;38.11
8637;BME280;4356;49.068;8.658;2023-04-28T07:56:45;99537.13;;;20.44;38.06
8637;BME280;4356;49.068;8.658;2023-04-28T07:59:10;99546.50;;;20.48;38.22
8637;BME280;4356;49.068;8.658;2023-04-28T08:01:36;99539.09;;;20.49;38.10
8637;BME280;4356;49.068;8.658;2023-04-28T08:04:01;99535.56;;;20.48;38.17
8637;BME280;4356;49.068;8.658;2023-04-28T08:06:27;99539.94;;;20.49;37.99
8637;BME280;4356;49.068;8.658;2023-04-28T08:08:54;99532.00;;;20.48;37.95
8637;BME280;4356;49.068;8.658;2023-04-28T08:11:20;99535.91;;;20.52;37.85
8637;BME280;4356;49.068;8.658;2023-04-28T08:13:47;99538.63;;;20.52;37.87
8637;BME280;4356;49.068;8.658;2023-04-28T08:16:14;99535.56;;;20.48;37.93
8637;BME280;4356;49.068;8.658;2023-04-28T08:18:40;99531.16;;;20.47;38.13
8637;BME280;4356;49.068;8.658;2023-04-28T08:21:06;99557.50;;;20.54;38.03
8637;BME280;4356;49.068;8.658;2023-04-28T08:23:31;99563.22;;;20.52;38.13
8637;BME280;4356;49.068;8.658;2023-04-28T08:25:57;99588.63;;;20.53;38.10
8637;BME280;4356;49.068;8.658;2023-04-28T08:28:23;99594.63;;;20.55;38.16
8637;BME280;4356;49.068;8.658;2023-04-28T08:30:49;99592.97;;;20.54;38.09
8637;BME280;4356;49.068;8.658;2023-04-28T08:33:14;99584.31;;;20.57;37.95
8637;BME280;4356;49.068;8.658;2023-04-28T08:35:40;99576.34;;;20.55;38.04
8637;BME280;4356;49.068;8.658;2023-04-28T08:38:06;99567.69;;;20.58;38.09
8637;BME280;4356;49.068;8.658;2023-04-28T08:40:32;99557.50;;;20.54;38.12
8637;BME280;4356;49.068;8.658;2023-04-28T08:42:59;99558.09;;;20.56;38.09
8637;BME280;4356;49.068;8.658;2023-04-28T08:45:24;99552.63;;;20.56;38.14
8637;BME280;4356;49.068;8.658;2023-04-28T08:47:50;99567.69;;;20.58;38.00
8637;BME280;4356;49.068;8.658;2023-04-28T08:50:20;99569.34;;;20.59;38.20
8637;BME280;4356;49.068;8.658;2023-04-28T08:52:51;99573.72;;;20.60;38.18
8637;BME280;4356;49.068;8.658;2023-04-28T08:55:17;99551.69;;;20.50;38.03
8637;BME280;4356;49.068;8.658;2023-04-28T08:57:45;99555.94;;;20.58;38.26
8637;BME280;4356;49.068;8.658;2023-04-28T09:00:13;99557.84;;;20.57;37.91
8637;BME280;4356;49.068;8.658;2023-04-28T09:02:39;99566.13;;;20.62;38.23
8637;BME280;4356;49.068;8.658;2023-04-28T09:05:12;99553.31;;;20.63;38.22
8637;BME280;4356;49.068;8.658;2023-04-28T09:07:40;99554.06;;;20.58;38.20
8637;BME280;4356;49.068;8.658;2023-04-28T09:10:22;99560.31;;;20.59;38.14
8637;BME280;4356;49.068;8.658;2023-04-28T09:12:54;99561.50;;;20.63;38.55
8637;BME280;4356;49.068;8.658;2023-04-28T09:15:37;99557.13;;;20.62;38.25
8637;BME280;4356;49.068;8.658;2023-04-28T09:18:10;99557.34;;;20.60;38.19
8637;BME280;4356;49.068;8.658;2023-04-28T09:20:38;99561.25;;;20.64;38.00
8637;BME280;4356;49.068;8.658;2023-04-28T09:23:16;99550.00;;;20.61;37.99
8637;BME280;4356;49.068;8.658;2023-04-28T09:28:24;99546.28;;;20.67;38.17
8637;BME280;4356;49.068;8.658;2023-04-28T09:30:50;99549.84;;;20.67;37.97
8637;BME280;4356;49.068;8.658;2023-04-28T09:33:16;99549.59;;;20.69;38.00
8637;BME280;4356;49.068;8.658;2023-04-28T09:35:43;99547.13;;;20.67;37.98
8637;BME280;4356;49.068;8.658;2023-04-28T09:38:16;99546.28;;;20.67;38.30
8637;BME280;4356;49.068;8.658;2023-04-28T09:40:54;99531.56;;;20.68;38.09
8637;BME280;4356;49.068;8.658;2023-04-28T09:43:32;99537.00;;;20.68;38.22
8637;BME280;4356;49.068;8.658;2023-04-28T09:46:01;99542.56;;;20.73;38.17
8637;BME280;4356;49.068;8.658;2023-04-28T09:48:32;99527.75;;;20.69;38.18
8637;BME280;4356;49.068;8.658;2023-04-28T09:51:05;99535.22;;;20.73;38.07
8637;BME280;4356;49.068;8.658;2023-04-28T09:53:33;99533.91;;;20.76;38.02
8637;BME280;4356;49.068;8.658;2023-04-28T09:56:01;99534.75;;;20.76;38.18
8637;BME280;4356;49.068;8.658;2023-04-28T09:58:29;99524.03;;;20.75;38.20
8637;BME280;4356;49.068;8.658;2023-04-28T10:00:56;99532.56;;;20.78;38.16
8637;BME280;4356;49.068;8.658;2023-04-28T10:03:24;99526.28;;;20.78;38.17
8637;BME280;4356;49.068;8.658;2023-04-28T10:05:51;99525.78;;;20.81;38.38
8637;BME280;4356;49.068;8.658;2023-04-28T10:08:21;99532.09;;;20.81;38.44
8637;BME280;4356;49.068;8.658;2023-04-28T10:10:51;99528.84;;;20.84;38.32
8637;BME280;4356;49.068;8.658;2023-04-28T10:13:21;99530.16;;;20.82;38.35
8637;BME280;4356;49.068;8.658;2023-04-28T10:15:48;99528.84;;;20.84;38.39
8637;BME280;4356;49.068;8.658;2023-04-28T10:18:15;99521.50;;;20.85;38.43
8637;BME280;4356;49.068;8.658;2023-04-28T10:20:45;99517.69;;;20.86;38.65
8637;BME280;4356;49.068;8.658;2023-04-28T10:25:54;99521.84;;;20.88;38.41
8637;BME280;4356;49.068;8.658;2023-04-28T10:28:27;99523.00;;;20.92;38.82
8637;BME280;4356;49.068;8.658;2023-04-28T10:33:41;99531.53;;;20.96;38.78
8637;BME280;4356;49.068;8.658;2023-04-28T10:36:07;99536.50;;;20.99;38.96
8637;BME280;4356;49.068;8.658;2023-04-28T10:38:34;99527.97;;;20.95;39.00
8637;BME280;4356;49.068;8.658;2023-04-28T10:41:01;99538.38;;;20.98;39.08
8637;BME280;4356;49.068;8.658;2023-04-28T10:43:37;99540.44;;;21.03;39.05
8637;BME280;4356;49.068;8.658;2023-04-28T10:46:08;99544.47;;;21.00;38.99
8637;BME280;4356;49.068;8.658;2023-04-28T10:58:51;99549.78;;;21.07;39.12
8637;BME280;4356;49.068;8.658;2023-04-28T11:08:54;99549.28;;;21.10;39.51
8637;BME280;4356;49.068;8.658;2023-04-28T11:11:28;99548.78;;;21.13;39.42
8637;BME280;4356;49.068;8.658;2023-04-28T11:14:29;99550.72;;;21.12;39.35
8637;BME280;4356;49.068;8.658;2023-04-28T11:16:55;99559.47;;;21.14;39.85
8637;BME280;4356;49.068;8.658;2023-04-28T11:19:32;99560.28;;;21.15;39.75
8637;BME280;4356;49.068;8.658;2023-04-28T11:21:59;99543.81;;;21.10;39.48
8637;BME280;4356;49.068;8.658;2023-04-28T11:24:27;99539.53;;;21.14;39.59
8637;BME280;4356;49.068;8.658;2023-04-28T11:26:54;99528.09;;;21.17;39.61
8637;BME280;4356;49.068;8.658;2023-04-28T11:29:49;99521.53;;;21.18;39.73
8637;BME280;4356;49.068;8.658;2023-04-28T11:32:15;99507.53;;;21.14;39.40
8637;BME280;4356;49.068;8.658;2023-04-28T11:34:40;99498.88;;;21.17;40.11
8637;BME280;4356;49.068;8.658;2023-04-28T11:37:06;99492.81;;;21.15;39.85
8637;BME280;4356;49.068;8.658;2023-04-28T11:39:34;99508.97;;;21.17;39.94
8637;BME280;4356;49.068;8.658;2023-04-28T11:42:10;99526.44;;;21.16;40.36
8637;BME280;4356;49.068;8.658;2023-04-28T11:44:36;99526.66;;;21.14;40.42
8637;BME280;4356;49.068;8.658;2023-04-28T11:47:03;99532.97;;;21.15;40.28
8637;BME280;4356;49.068;8.658;2023-04-28T11:49:30;99529.19;;;21.16;40.32
8637;BME280;4356;49.068;8.658;2023-04-28T11:52:03;99517.91;;;21.12;40.33
8637;BME280;4356;49.068;8.658;2023-04-28T11:54:30;99520.16;;;21.15;40.05
8637;BME280;4356;49.068;8.658;2023-04-28T11:56:58;99523.47;;;21.17;40.06
8637;BME280;4356;49.068;8.658;2023-04-28T11:59:33;99519.38;;;21.20;40.13
8637;BME280;4356;49.068;8.658;2023-04-28T12:02:03;99514.44;;;21.17;40.30
8637;BME280;4356;49.068;8.658;2023-04-28T12:04:34;99524.84;;;21.20;40.26
8637;BME280;4356;49.068;8.658;2023-04-28T12:07:17;99517.16;;;21.17;40.05
8637;BME280;4356;49.068;8.658;2023-04-28T12:09:46;99516.91;;;21.18;40.13
8637;BME280;4356;49.068;8.658;2023-04-28T12:12:31;99523.78;;;21.21;40.16
8637;BME280;4356;49.068;8.658;2023-04-28T12:15:04;99530.91;;;21.22;40.20
8637;BME280;4356;49.068;8.658;2023-04-28T12:20:02;99515.94;;;21.24;40.32
8637;BME280;4356;49.068;8.658;2023-04-28T12:22:28;99511.50;;;21.23;40.56
8637;BME280;4356;49.068;8.658;2023-04-28T12:25:05;99506.06;;;21.23;40.17
8637;BME280;4356;49.068;8.658;2023-04-28T12:27:32;99508.88;;;21.28;40.31
8637;BME280;4356;49.068;8.658;2023-04-28T12:29:58;99521.22;;;21.31;40.07
8637;BME280;4356;49.068;8.658;2023-04-28T12:32:37;99514.94;;;21.30;40.20
8637;BME280;4356;49.068;8.658;2023-04-28T12:35:08;99523.69;;;21.32;40.05
8637;BME280;4356;49.068;8.658;2023-04-28T12:37:34;99516.56;;;21.31;40.22
8637;BME280;4356;49.068;8.658;2023-04-28T12:39:59;99512.75;;;21.32;40.00
8637;BME280;4356;49.068;8.658;2023-04-28T12:42:26;99524.84;;;21.36;40.50
8637;BME280;4356;49.068;8.658;2023-04-28T12:44:53;99520.72;;;21.34;40.46
8637;BME280;4356;49.068;8.658;2023-04-28T12:47:19;99513.84;;;21.31;40.24
8637;BME280;4356;49.068;8.658;2023-04-28T12:49:45;99522.69;;;21.38;40.33
8637;BME280;4356;49.068;8.658;2023-04-28T12:52:11;99515.00;;;21.35;40.33
8637;BME280;4356;49.068;8.658;2023-04-28T12:54:37;99521.97;;;21.43;40.28
8637;BME280;4356;49.068;8.658;2023-04-28T12:57:05;99500.09;;;21.43;40.21
8637;BME280;4356;49.068;8.658;2023-04-28T12:59:31;99508.88;;;21.45;40.42
8637;BME280;4356;49.068;8.658;2023-04-28T13:01:57;99508.88;;;21.45;40.56
8637;BME280;4356;49.068;8.658;2023-04-28T13:04:23;99511.84;;;21.43;40.28
8637;BME280;4356;49.068;8.658;2023-04-28T13:06:49;99511.34;;;21.46;40.30
8637;BME280;4356;49.068;8.658;2023-04-28T13:09:15;99517.88;;;21.45;40.40
8637;BME280;4356;49.068;8.658;2023-04-28T13:11:41;99511.34;;;21.46;40.43
8637;BME280;4356;49.068;8.658;2023-04-28T13:14:07;99511.09;;;21.48;40.24
8637;BME280;4356;49.068;8.658;2023-04-28T13:16:33;99514.66;;;21.48;40.27
8637;BME280;4356;49.068;8.658;2023-04-28T13:19:00;99510.34;;;21.52;40.43
8637;BME280;4356;49.068;8.658;2023-04-28T13:21:26;99507.28;;;21.49;40.60
8637;BME280;4356;49.068;8.658;2023-04-28T13:23:53;99510.09;;;21.54;40.45
8637;BME280;4356;49.068;8.658;2023-04-28T13:26:20;99510.09;;;21.54;40.38
8637;BME280;4356;49.068;8.658;2023-04-28T13:28:49;99501.31;;;21.52;40.43
8637;BME280;4356;49.068;8.658;2023-04-28T13:31:15;99491.78;;;21.55;40.27
8637;BME280;4356;49.068;8.658;2023-04-28T13:33:41;99505.19;;;21.56;40.50
8637;BME280;4356;49.068;8.658;2023-04-28T13:36:07;99494.50;;;21.55;40.37
8637;BME280;4356;49.068;8.658;2023-04-28T13:38:33;99498.41;;;21.59;40.90
8637;BME280;4356;49.068;8.658;2023-04-28T13:40:59;99494.56;;;21.60;40.82
8637;BME280;4356;49.068;8.658;2023-04-28T13:43:25;99485.81;;;21.58;41.22
8637;BME280;4356;49.068;8.658;2023-04-28T13:45:51;99485.56;;;21.59;41.56
8637;BME280;4356;49.068;8.658;2023-04-28T13:48:17;99480.56;;;21.56;41.70
8637;BME280;4356;49.068;8.658;2023-04-28T13:50:43;99477.03;;;21.56;41.67